createdAt,value
2023-01-22T00:01:12.937Z,19.10
2023-01-22T00:03:39.737Z,17.33
2023-01-22T00:06:07.004Z,18.30
2023-01-22T00:08:33.227Z,18.67
2023-01-22T00:10:59.353Z,18.97
2023-01-22T00:13:26.287Z,19.70
2023-01-22T00:15:52.771Z,17.60
2023-01-22T00:18:19.266Z,19.07
2023-01-22T00:20:46.497Z,18.07
2023-01-22T00:23:13.257Z,18.00
2023-01-22T00:25:39.413Z,17.73
2023-01-22T00:28:05.883Z,17.93
2023-01-22T00:30:32.069Z,18.30
2023-01-22T00:32:58.168Z,16.93
2023-01-22T00:35:24.737Z,18.07
2023-01-22T00:37:50.865Z,19.60
2023-01-22T00:40:18.251Z,18.43
2023-01-22T00:42:44.530Z,18.10
2023-01-22T00:45:12.897Z,19.60
2023-01-22T00:47:39.166Z,18.10
2023-01-22T00:50:06.216Z,18.77
2023-01-22T00:52:32.403Z,19.47
2023-01-22T00:54:58.518Z,19.33
2023-01-22T00:57:25.274Z,19.90
2023-01-22T00:59:52.387Z,22.90
2023-01-22T01:02:18.724Z,21.40
2023-01-22T01:04:44.862Z,20.57
2023-01-22T01:07:11.015Z,19.70
2023-01-22T01:09:37.156Z,19.33
2023-01-22T01:12:03.572Z,18.70
2023-01-22T01:14:30.402Z,18.67
2023-01-22T01:16:58.412Z,19.03
2023-01-22T01:19:24.981Z,18.77
2023-01-22T01:21:51.110Z,18.80
2023-01-22T01:24:17.221Z,19.17
2023-01-22T01:26:43.329Z,18.77
2023-01-22T01:29:10.593Z,19.63
2023-01-22T01:31:37.954Z,20.80
2023-01-22T01:34:04.225Z,20.20
2023-01-22T01:36:47.769Z,19.37
2023-01-22T01:39:14.769Z,20.23
2023-01-22T01:41:40.885Z,19.33
2023-01-22T01:44:08.988Z,18.57
2023-01-22T01:46:37.865Z,19.93
2023-01-22T01:49:04.029Z,19.67
2023-01-22T01:51:32.279Z,20.00
2023-01-22T01:53:59.147Z,19.77
2023-01-22T01:56:28.509Z,19.87
2023-01-22T01:58:58.977Z,19.90
2023-01-22T02:01:25.863Z,19.97
2023-01-22T02:03:52.919Z,19.87
2023-01-22T02:06:19.697Z,19.93
2023-01-22T02:08:47.756Z,18.63
2023-01-22T02:11:14.279Z,21.10
2023-01-22T02:13:43.488Z,20.27
2023-01-22T02:16:11.063Z,21.23
2023-01-22T02:18:37.276Z,21.60
2023-01-22T02:21:04.541Z,21.87
2023-01-22T02:23:31.585Z,22.67
2023-01-22T02:25:58.053Z,23.10
2023-01-22T02:28:24.318Z,21.23
2023-01-22T02:30:50.509Z,22.13
2023-01-22T02:33:17.249Z,21.20
2023-01-22T02:35:43.376Z,22.53
2023-01-22T02:38:10.108Z,21.77
2023-01-22T02:40:48.138Z,20.57
2023-01-22T02:43:14.892Z,19.90
2023-01-22T02:45:41.065Z,20.47
2023-01-22T02:48:07.229Z,20.57
2023-01-22T02:50:33.334Z,21.83
2023-01-22T02:52:59.446Z,20.93
2023-01-22T02:55:26.192Z,21.80
2023-01-22T02:57:52.303Z,22.30
2023-01-22T03:00:19.434Z,20.43
2023-01-22T03:02:45.742Z,21.67
2023-01-22T03:05:11.907Z,20.13
2023-01-22T03:07:44.083Z,20.90
2023-01-22T03:10:13.749Z,20.50
2023-01-22T03:12:59.513Z,20.93
2023-01-22T03:15:44.273Z,20.40
2023-01-22T03:18:29.193Z,19.60
2023-01-22T03:21:14.366Z,19.10
2023-01-22T03:23:40.885Z,21.23
2023-01-22T03:26:07.099Z,19.80
2023-01-22T03:28:33.873Z,20.63
2023-01-22T03:31:00.008Z,20.87
2023-01-22T03:33:26.156Z,20.30
2023-01-22T03:35:52.331Z,20.23
2023-01-22T03:38:18.456Z,20.07
2023-01-22T03:40:44.564Z,21.43
2023-01-22T03:43:10.719Z,19.77
2023-01-22T03:45:37.488Z,19.90
2023-01-22T03:48:04.158Z,19.17
2023-01-22T03:50:30.344Z,20.97
2023-01-22T03:52:57.333Z,21.07
2023-01-22T03:55:24.524Z,20.33
2023-01-22T03:57:50.688Z,20.13
2023-01-22T04:00:18.129Z,20.83
2023-01-22T04:02:45.115Z,19.47
2023-01-22T04:05:11.264Z,20.03
2023-01-22T04:07:37.345Z,20.10
2023-01-22T04:10:04.105Z,20.20
2023-01-22T04:12:30.217Z,20.13
2023-01-22T04:14:56.325Z,19.63
2023-01-22T04:17:22.453Z,19.43
2023-01-22T04:19:49.226Z,19.10
2023-01-22T04:22:15.338Z,19.07
2023-01-22T04:24:41.484Z,19.10
2023-01-22T04:27:07.600Z,19.37
2023-01-22T04:29:33.732Z,18.87
2023-01-22T04:31:59.820Z,19.27
2023-01-22T04:34:25.908Z,18.77
2023-01-22T04:36:52.640Z,17.50
2023-01-22T04:39:18.725Z,18.83
2023-01-22T04:41:44.821Z,18.30
2023-01-22T04:44:11.305Z,17.23
2023-01-22T04:46:37.413Z,18.77
2023-01-22T04:49:03.540Z,18.00
2023-01-22T04:51:29.677Z,18.30
2023-01-22T04:53:56.603Z,17.27
2023-01-22T04:56:22.719Z,18.03
2023-01-22T04:58:49.107Z,18.27
2023-01-22T05:01:15.372Z,17.97
2023-01-22T05:03:41.522Z,17.03
2023-01-22T05:06:07.910Z,17.73
2023-01-22T05:08:34.019Z,17.97
2023-01-22T05:11:01.699Z,17.63
2023-01-22T05:13:28.813Z,16.90
2023-01-22T05:15:55.395Z,18.73
2023-01-22T05:18:21.500Z,17.23
2023-01-22T05:20:47.622Z,17.37
2023-01-22T05:23:13.838Z,17.63
2023-01-22T05:25:39.981Z,18.70
2023-01-22T05:28:06.725Z,17.10
2023-01-22T05:30:32.888Z,18.93
2023-01-22T05:32:59.026Z,17.73
2023-01-22T05:35:25.173Z,17.87
2023-01-22T05:37:51.302Z,18.73
2023-01-22T05:40:17.726Z,18.63
2023-01-22T05:42:43.980Z,19.97
2023-01-22T05:45:11.214Z,18.07
2023-01-22T05:47:37.324Z,17.67
2023-01-22T05:50:03.909Z,18.80
2023-01-22T05:52:30.011Z,18.90
2023-01-22T05:54:58.135Z,18.10
2023-01-22T05:57:24.284Z,20.80
2023-01-22T05:59:50.388Z,17.70
2023-01-22T06:02:17.179Z,20.37
2023-01-22T06:04:43.364Z,19.23
2023-01-22T06:07:09.505Z,18.13
2023-01-22T06:09:35.627Z,17.43
2023-01-22T06:12:01.735Z,18.80
2023-01-22T06:14:27.852Z,19.03
2023-01-22T06:16:53.984Z,17.70
2023-01-22T06:19:20.704Z,18.37
2023-01-22T06:21:46.818Z,18.97
2023-01-22T06:24:12.933Z,18.50
2023-01-22T06:26:39.095Z,18.43
2023-01-22T06:29:05.494Z,19.60
2023-01-22T06:31:32.095Z,20.43
2023-01-22T06:33:58.333Z,18.50
2023-01-22T06:36:25.150Z,18.40
2023-01-22T06:38:51.263Z,17.77
2023-01-22T06:41:17.376Z,18.33
2023-01-22T06:43:43.489Z,17.73
2023-01-22T06:46:09.690Z,18.90
2023-01-22T06:48:35.833Z,18.70
2023-01-22T06:51:02.043Z,17.60
2023-01-22T06:53:28.820Z,19.07
2023-01-22T06:55:55.010Z,17.40
2023-01-22T06:58:21.412Z,17.53
2023-01-22T07:00:47.516Z,16.97
2023-01-22T07:03:13.615Z,17.03
2023-01-22T07:05:39.709Z,17.87
2023-01-22T07:08:05.860Z,16.97
2023-01-22T07:10:32.597Z,16.63
2023-01-22T07:12:58.706Z,16.97
2023-01-22T07:15:25.231Z,16.90
2023-01-22T07:17:51.952Z,16.97
2023-01-22T07:20:18.534Z,15.90
2023-01-22T07:22:44.769Z,15.20
2023-01-22T07:25:10.881Z,15.57
2023-01-22T07:27:37.911Z,17.17
2023-01-22T07:30:04.885Z,15.40
2023-01-22T07:32:31.036Z,15.47
2023-01-22T07:34:57.142Z,16.40
2023-01-22T07:37:23.253Z,14.13
2023-01-22T07:39:49.378Z,14.97
2023-01-22T07:42:15.591Z,15.50
2023-01-22T07:44:42.337Z,13.83
2023-01-22T07:47:08.697Z,14.57
2023-01-22T07:49:35.152Z,13.83
2023-01-22T07:52:01.242Z,13.43
2023-01-22T07:54:27.381Z,13.93
2023-01-22T07:56:53.486Z,13.30
2023-01-22T07:59:19.855Z,13.57
2023-01-22T08:01:46.664Z,12.90
2023-01-22T08:04:12.784Z,13.97
2023-01-22T08:06:38.994Z,15.47
2023-01-22T08:09:05.403Z,13.40
2023-01-22T08:11:31.508Z,14.10
2023-01-22T08:13:57.633Z,13.87
2023-01-22T08:16:23.809Z,14.30
2023-01-22T08:18:50.555Z,13.43
2023-01-22T08:21:16.657Z,14.53
2023-01-22T08:23:46.171Z,14.07
2023-01-22T08:26:13.695Z,13.83
2023-01-22T08:28:39.798Z,14.37
2023-01-22T08:31:09.396Z,11.93
2023-01-22T08:33:37.612Z,14.13
2023-01-22T08:36:05.969Z,13.50
2023-01-22T08:38:32.148Z,13.10
2023-01-22T08:40:58.246Z,13.50
2023-01-22T08:43:24.456Z,13.93
2023-01-22T08:45:50.634Z,13.87
2023-01-22T08:48:17.089Z,13.60
2023-01-22T08:50:43.201Z,14.73
2023-01-22T08:53:10.114Z,13.40
2023-01-22T08:55:36.243Z,13.40
2023-01-22T08:58:02.388Z,13.90
2023-01-22T09:00:28.515Z,13.57
2023-01-22T09:02:58.128Z,14.23
2023-01-22T09:05:24.279Z,13.17
2023-01-22T09:07:50.449Z,13.80
2023-01-22T09:10:19.307Z,13.53
2023-01-22T09:12:46.703Z,14.10
2023-01-22T09:15:12.830Z,12.57
2023-01-22T09:17:40.448Z,13.30
2023-01-22T09:20:07.220Z,13.57
2023-01-22T09:22:33.440Z,14.97
2023-01-22T09:24:59.567Z,13.10
2023-01-22T09:27:26.290Z,13.67
2023-01-22T09:29:52.375Z,14.13
2023-01-22T09:32:18.484Z,13.43
2023-01-22T09:34:44.604Z,13.27
2023-01-22T09:37:10.959Z,13.87
2023-01-22T09:39:37.090Z,12.93
2023-01-22T09:42:03.860Z,12.47
2023-01-22T09:44:32.974Z,13.97
2023-01-22T09:47:02.437Z,14.20
2023-01-22T09:49:31.411Z,14.27
2023-01-22T09:51:58.673Z,14.10
2023-01-22T09:54:25.615Z,13.23
2023-01-22T09:56:53.531Z,14.60
2023-01-22T09:59:22.232Z,15.83
2023-01-22T10:01:52.163Z,15.03
2023-01-22T10:04:26.394Z,14.00
2023-01-22T10:06:54.163Z,16.20
2023-01-22T10:09:20.544Z,15.43
2023-01-22T10:11:52.634Z,14.40
2023-01-22T10:14:21.189Z,13.23
2023-01-22T10:16:48.243Z,14.70
2023-01-22T10:19:18.240Z,14.03
2023-01-22T10:21:46.535Z,15.10
2023-01-22T10:24:12.949Z,14.00
2023-01-22T10:26:41.520Z,14.63
2023-01-22T10:29:09.518Z,14.17
2023-01-22T10:31:39.075Z,13.97
2023-01-22T10:34:10.623Z,16.07
2023-01-22T10:36:37.407Z,14.93
2023-01-22T10:39:05.379Z,14.83
2023-01-22T10:41:31.543Z,15.23
2023-01-22T10:44:08.556Z,14.10
2023-01-22T10:46:34.677Z,13.97
2023-01-22T10:49:02.237Z,14.43
2023-01-22T10:51:31.784Z,14.77
2023-01-22T10:53:58.958Z,14.90
2023-01-22T10:56:28.354Z,15.40
2023-01-22T10:58:56.144Z,14.67
2023-01-22T11:01:27.776Z,15.03
2023-01-22T11:03:53.947Z,14.73
2023-01-22T11:06:23.733Z,14.30
2023-01-22T11:08:53.139Z,15.67
2023-01-22T11:11:23.274Z,14.93
2023-01-22T11:13:53.976Z,15.27
2023-01-22T11:16:21.482Z,17.90
2023-01-22T11:18:53.756Z,14.43
2023-01-22T11:21:24.732Z,15.60
2023-01-22T11:23:55.489Z,15.17
2023-01-22T11:26:40.509Z,14.40
2023-01-22T11:29:15.236Z,14.57
2023-01-22T11:31:52.884Z,15.97
2023-01-22T11:34:39.172Z,15.47
2023-01-22T11:37:11.272Z,16.30
2023-01-22T11:39:57.569Z,16.07
2023-01-22T11:42:36.809Z,15.53
2023-01-22T11:45:14.581Z,16.07
2023-01-22T11:48:00.954Z,14.60
2023-01-22T11:50:29.288Z,15.97
2023-01-22T11:53:05.155Z,16.33
2023-01-22T11:55:59.167Z,16.03
2023-01-22T11:58:33.000Z,19.33
2023-01-22T12:01:11.524Z,16.20
2023-01-22T12:04:07.695Z,15.87
2023-01-22T12:06:46.173Z,15.53
2023-01-22T12:09:18.218Z,15.87
2023-01-22T12:12:02.476Z,16.03
2023-01-22T12:14:37.540Z,14.90
2023-01-22T12:17:11.662Z,14.90
2023-01-22T12:19:54.249Z,14.43
2023-01-22T12:22:28.428Z,15.00
2023-01-22T12:24:58.948Z,15.07
2023-01-22T12:27:28.857Z,14.83
2023-01-22T12:30:01.698Z,15.27
2023-01-22T12:32:29.293Z,14.23
2023-01-22T12:34:59.614Z,15.33
2023-01-22T12:37:28.752Z,15.17
2023-01-22T12:40:05.369Z,14.67
2023-01-22T12:42:35.593Z,16.13
2023-01-22T12:45:13.324Z,15.57
2023-01-22T12:47:47.940Z,16.03
2023-01-22T12:50:18.475Z,20.13
2023-01-22T12:52:46.694Z,17.97
2023-01-22T12:55:28.850Z,16.23
2023-01-22T12:57:55.052Z,15.63
2023-01-22T13:00:30.858Z,16.07
2023-01-22T13:02:57.533Z,15.40
2023-01-22T13:05:38.700Z,16.50
2023-01-22T13:08:07.538Z,15.53
2023-01-22T13:10:35.420Z,16.13
2023-01-22T13:13:03.787Z,14.80
2023-01-22T13:15:32.493Z,17.30
2023-01-22T13:18:07.180Z,16.00
2023-01-22T13:20:36.108Z,17.87
2023-01-22T13:23:04.799Z,17.20
2023-01-22T13:25:32.301Z,17.00
2023-01-22T13:27:59.568Z,15.90
2023-01-22T13:30:27.701Z,17.03
2023-01-22T13:33:05.320Z,17.43
2023-01-22T13:35:33.996Z,16.60
2023-01-22T13:38:00.112Z,17.53
2023-01-22T13:40:27.663Z,17.40
2023-01-22T13:42:54.737Z,17.63
2023-01-22T13:45:22.564Z,19.10
2023-01-22T13:47:49.997Z,16.83
2023-01-22T13:50:21.336Z,17.83
2023-01-22T13:52:49.498Z,18.03
2023-01-22T13:55:17.087Z,17.53
2023-01-22T13:57:47.295Z,18.20
2023-01-22T14:00:27.939Z,17.33
2023-01-22T14:02:54.690Z,17.97
2023-01-22T14:05:22.748Z,16.67
2023-01-22T14:07:49.652Z,17.57
2023-01-22T14:10:18.776Z,17.53
2023-01-22T14:12:45.170Z,16.83
2023-01-22T14:15:15.737Z,17.20
2023-01-22T14:17:41.848Z,17.53
2023-01-22T14:20:09.388Z,18.17
2023-01-22T14:22:36.141Z,17.37
2023-01-22T14:25:02.349Z,16.60
2023-01-22T14:27:39.150Z,16.93
2023-01-22T14:30:07.218Z,17.97
2023-01-22T14:32:33.338Z,17.40
2023-01-22T14:35:00.714Z,18.03
2023-01-22T14:37:26.997Z,18.70
2023-01-22T14:39:53.731Z,19.10
2023-01-22T14:42:19.833Z,18.13
2023-01-22T14:44:46.051Z,17.40
2023-01-22T14:47:12.147Z,17.57
2023-01-22T14:49:39.095Z,18.20
2023-01-22T14:52:05.196Z,18.53
2023-01-22T14:54:31.320Z,19.33
2023-01-22T14:57:02.050Z,18.43
2023-01-22T14:59:28.202Z,18.13
2023-01-22T15:01:54.418Z,18.97
2023-01-22T15:04:20.583Z,18.33
2023-01-22T15:06:46.697Z,19.87
2023-01-22T15:09:12.953Z,17.83
2023-01-22T15:11:39.044Z,17.87
2023-01-22T15:14:05.970Z,17.30
2023-01-22T15:16:32.380Z,17.53
2023-01-22T15:18:58.519Z,18.63
2023-01-22T15:21:24.666Z,19.13
2023-01-22T15:23:50.917Z,18.63
2023-01-22T15:26:23.638Z,19.27
2023-01-22T15:28:49.746Z,17.83
2023-01-22T15:31:16.541Z,19.10
2023-01-22T15:33:42.673Z,19.90
2023-01-22T15:36:08.918Z,18.47
2023-01-22T15:38:35.034Z,18.57
2023-01-22T15:41:02.823Z,18.47
2023-01-22T15:43:28.927Z,19.70
2023-01-22T15:45:55.044Z,19.77
2023-01-22T15:48:21.884Z,20.27
2023-01-22T15:50:48.037Z,21.27
2023-01-22T15:53:14.173Z,19.40
2023-01-22T15:55:40.348Z,19.60
2023-01-22T15:58:07.252Z,21.57
2023-01-22T16:00:33.367Z,20.37
2023-01-22T16:02:59.703Z,21.47
2023-01-22T16:05:26.442Z,21.57
2023-01-22T16:07:52.756Z,19.93
2023-01-22T16:10:19.428Z,22.33
2023-01-22T16:12:45.716Z,19.33
2023-01-22T16:15:11.807Z,19.43
2023-01-22T16:17:37.982Z,20.90
2023-01-22T16:20:05.116Z,21.30
2023-01-22T16:22:31.893Z,20.53
2023-01-22T16:24:58.266Z,21.60
2023-01-22T16:27:24.435Z,19.83
2023-01-22T16:29:50.556Z,21.50
2023-01-22T16:32:16.653Z,21.67
2023-01-22T16:34:42.777Z,20.70
2023-01-22T16:37:08.900Z,22.43
2023-01-22T16:39:36.008Z,21.57
2023-01-22T16:42:02.130Z,23.07
2023-01-22T16:44:28.462Z,24.73
2023-01-22T16:46:56.823Z,23.83
2023-01-22T16:49:25.081Z,23.80
2023-01-22T16:51:53.002Z,25.60
2023-01-22T16:54:23.401Z,23.67
2023-01-22T16:56:50.273Z,23.87
2023-01-22T16:59:16.637Z,23.07
2023-01-22T17:01:42.908Z,24.70
2023-01-22T17:04:09.147Z,23.93
2023-01-22T17:06:39.759Z,29.90
2023-01-22T17:09:06.145Z,26.93
2023-01-22T17:11:32.307Z,26.13
2023-01-22T17:13:59.350Z,24.90
2023-01-22T17:16:25.628Z,26.00
2023-01-22T17:18:53.159Z,22.87
2023-01-22T17:21:19.444Z,21.97
2023-01-22T17:23:45.729Z,25.70
2023-01-22T17:26:14.380Z,26.10
2023-01-22T17:28:40.646Z,20.57
2023-01-22T17:31:10.153Z,20.30
2023-01-22T17:33:36.659Z,23.60
2023-01-22T17:36:03.697Z,22.70
2023-01-22T17:38:31.981Z,22.87
2023-01-22T17:40:58.277Z,23.00
2023-01-22T17:43:24.385Z,41.63
2023-01-22T17:45:50.593Z,50.53
2023-01-22T17:48:17.422Z,24.33
2023-01-22T17:50:43.566Z,39.77
2023-01-22T17:53:09.745Z,31.03
2023-01-22T17:55:37.167Z,26.00
2023-01-22T17:58:03.295Z,30.17
2023-01-22T18:00:30.768Z,24.63
2023-01-22T18:02:57.115Z,23.03
2023-01-22T18:05:25.827Z,25.23
2023-01-22T18:07:52.227Z,24.73
2023-01-22T18:10:19.676Z,24.20
2023-01-22T18:12:45.880Z,29.37
2023-01-22T18:15:12.407Z,38.30
2023-01-22T18:17:38.544Z,38.63
2023-01-22T18:20:05.947Z,38.80
2023-01-22T18:22:32.934Z,30.47
2023-01-22T18:24:59.065Z,26.80
2023-01-22T18:27:25.251Z,34.57
2023-01-22T18:29:51.376Z,40.87
2023-01-22T18:32:17.482Z,37.37
2023-01-22T18:34:43.747Z,29.50
2023-01-22T18:37:11.143Z,34.40
2023-01-22T18:39:39.749Z,26.53
2023-01-22T18:42:05.929Z,35.03
2023-01-22T18:44:32.115Z,28.53
2023-01-22T18:47:00.324Z,32.13
2023-01-22T18:49:28.188Z,34.70
2023-01-22T18:51:58.317Z,24.77
2023-01-22T18:54:24.444Z,25.80
2023-01-22T18:56:51.216Z,38.93
2023-01-22T18:59:17.344Z,29.17
2023-01-22T19:01:49.785Z,27.90
2023-01-22T19:04:19.938Z,28.83
2023-01-22T19:06:51.019Z,41.37
2023-01-22T19:09:18.148Z,30.63
2023-01-22T19:11:46.450Z,28.67
2023-01-22T19:14:14.800Z,25.87
2023-01-22T19:16:43.929Z,25.40
2023-01-22T19:19:12.767Z,23.03
2023-01-22T19:21:39.713Z,26.00
2023-01-22T19:24:06.968Z,26.10
2023-01-22T19:26:34.681Z,24.23
2023-01-22T19:29:01.928Z,24.03
2023-01-22T19:31:31.475Z,23.93
2023-01-22T19:33:58.048Z,24.80
2023-01-22T19:36:26.590Z,25.10
2023-01-22T19:38:52.707Z,28.30
2023-01-22T19:41:19.275Z,27.17
2023-01-22T19:43:45.448Z,26.47
2023-01-22T19:46:13.340Z,28.03
2023-01-22T19:48:40.636Z,27.73
2023-01-22T19:51:09.347Z,28.73
2023-01-22T19:53:35.919Z,27.13
2023-01-22T19:56:02.064Z,27.67
2023-01-22T19:58:28.240Z,28.00
2023-01-22T20:00:55.143Z,28.53
2023-01-22T20:03:21.361Z,26.87
2023-01-22T20:05:48.202Z,27.17
2023-01-22T20:08:14.581Z,25.73
2023-01-22T20:10:41.037Z,28.37
2023-01-22T20:13:08.700Z,36.07
2023-01-22T20:15:36.841Z,23.33
2023-01-22T20:18:03.115Z,28.77
2023-01-22T20:20:29.331Z,28.10
2023-01-22T20:22:56.075Z,28.93
2023-01-22T20:25:22.698Z,27.20
2023-01-22T20:27:48.986Z,24.13
2023-01-22T20:30:15.507Z,24.00
2023-01-22T20:32:41.792Z,23.57
2023-01-22T20:35:09.389Z,23.10
2023-01-22T20:37:35.520Z,24.37
2023-01-22T20:40:02.512Z,25.33
2023-01-22T20:42:28.638Z,22.77
2023-01-22T20:44:57.485Z,23.13
2023-01-22T20:47:23.680Z,22.47
2023-01-22T20:49:49.833Z,23.17
2023-01-22T20:52:16.580Z,22.47
2023-01-22T20:54:54.924Z,22.00
2023-01-22T20:57:27.987Z,22.50
2023-01-22T20:59:54.135Z,21.73
2023-01-22T21:02:20.422Z,22.67
2023-01-22T21:04:50.024Z,24.60
2023-01-22T21:07:16.153Z,25.97
2023-01-22T21:09:42.386Z,23.80
2023-01-22T21:12:09.672Z,25.07
2023-01-22T21:14:36.433Z,25.33
2023-01-22T21:17:02.539Z,27.03
2023-01-22T21:19:28.789Z,25.33
2023-01-22T21:21:56.468Z,26.17
2023-01-22T21:24:22.786Z,25.57
2023-01-22T21:26:49.210Z,26.10
2023-01-22T21:29:18.446Z,23.50
2023-01-22T21:31:48.189Z,23.73
2023-01-22T21:34:14.966Z,23.30
2023-01-22T21:36:44.235Z,22.20
2023-01-22T21:39:14.520Z,18.13
2023-01-22T21:41:40.954Z,20.30
2023-01-22T21:44:25.758Z,18.50
2023-01-22T21:46:52.493Z,21.37
2023-01-22T21:49:23.546Z,19.47
2023-01-22T21:51:50.799Z,17.57
2023-01-22T21:54:19.433Z,18.53
2023-01-22T21:56:45.710Z,18.87
2023-01-22T21:59:12.335Z,18.60
2023-01-22T22:01:38.568Z,20.03
2023-01-22T22:04:06.584Z,20.53
2023-01-22T22:06:33.673Z,16.97
2023-01-22T22:09:01.547Z,15.53
2023-01-22T22:11:27.814Z,14.87
2023-01-22T22:13:54.320Z,14.57
2023-01-22T22:16:20.975Z,15.77
2023-01-22T22:18:47.240Z,14.93
2023-01-22T22:21:14.244Z,13.90
2023-01-22T22:23:40.551Z,15.20
2023-01-22T22:26:07.655Z,14.90
2023-01-22T22:28:34.624Z,15.10
2023-01-22T22:31:05.696Z,15.50
2023-01-22T22:33:31.825Z,16.00
2023-01-22T22:35:57.944Z,15.17
2023-01-22T22:38:24.767Z,14.67
2023-01-22T22:40:58.605Z,14.37
2023-01-22T22:43:25.760Z,12.17
2023-01-22T22:45:52.066Z,12.47
2023-01-22T22:48:18.930Z,12.40
2023-01-22T22:50:45.096Z,12.40
2023-01-22T22:53:11.436Z,12.20
2023-01-22T22:55:40.584Z,12.03
2023-01-22T22:58:09.320Z,12.03
2023-01-22T23:00:37.286Z,11.97
2023-01-22T23:03:03.657Z,12.80
2023-01-22T23:05:29.800Z,13.00
2023-01-22T23:07:55.889Z,13.43
2023-01-22T23:10:31.214Z,12.37
2023-01-22T23:12:59.857Z,12.90
2023-01-22T23:15:27.812Z,13.00
2023-01-22T23:17:55.509Z,12.30
2023-01-22T23:20:22.118Z,12.73
2023-01-22T23:22:50.316Z,13.13
2023-01-22T23:25:16.731Z,12.33
2023-01-22T23:27:42.877Z,12.33
2023-01-22T23:30:11.173Z,11.53
2023-01-22T23:32:38.116Z,12.90
2023-01-22T23:35:05.624Z,12.23
2023-01-22T23:37:31.910Z,12.17
2023-01-22T23:39:58.073Z,11.80
2023-01-22T23:42:24.178Z,11.10
2023-01-22T23:44:50.276Z,12.47
2023-01-22T23:47:16.985Z,12.30
2023-01-22T23:49:43.107Z,12.13
2023-01-22T23:52:09.240Z,11.67
2023-01-22T23:54:35.368Z,10.10
2023-01-22T23:57:01.509Z,11.00
2023-01-22T23:59:27.643Z,10.33
